createdAt,value
2017-07-12T00:00:21.915Z,2.20
2017-07-12T00:02:50.171Z,2.30
2017-07-12T00:05:17.744Z,2.20
2017-07-12T00:07:45.983Z,2.07
2017-07-12T00:10:13.469Z,2.30
2017-07-12T00:12:41.728Z,2.20
2017-07-12T00:15:09.227Z,2.10
2017-07-12T00:17:36.766Z,2.40
2017-07-12T00:20:05.014Z,2.37
2017-07-12T00:22:32.490Z,2.27
2017-07-12T00:25:00.728Z,2.27
2017-07-12T00:27:28.205Z,2.50
2017-07-12T00:29:55.687Z,2.90
2017-07-12T00:32:23.977Z,2.23
2017-07-12T00:34:52.293Z,2.20
2017-07-12T00:37:19.729Z,2.03
2017-07-12T00:39:47.233Z,2.30
2017-07-12T00:42:14.715Z,2.20
2017-07-12T00:44:42.970Z,2.17
2017-07-12T00:47:10.438Z,2.47
2017-07-12T00:49:37.939Z,2.23
2017-07-12T00:52:05.410Z,2.10
2017-07-12T00:54:32.906Z,2.00
2017-07-12T00:57:00.385Z,2.80
2017-07-12T00:59:28.677Z,2.40
2017-07-12T01:01:56.163Z,2.13
2017-07-12T01:04:23.649Z,2.13
2017-07-12T01:06:51.153Z,2.23
2017-07-12T01:09:18.622Z,2.30
2017-07-12T01:11:46.110Z,2.00
2017-07-12T01:14:13.583Z,2.27
2017-07-12T01:16:41.066Z,2.37
2017-07-12T01:19:09.300Z,2.27
2017-07-12T01:21:37.144Z,2.73
2017-07-12T01:24:05.428Z,2.57
2017-07-12T01:26:32.946Z,2.60
2017-07-12T01:29:01.175Z,2.10
2017-07-12T01:31:28.659Z,2.20
2017-07-12T01:33:56.151Z,2.60
2017-07-12T01:36:23.638Z,2.30
2017-07-12T01:38:51.123Z,2.33
2017-07-12T01:41:18.598Z,2.57
2017-07-12T01:43:46.842Z,2.43
2017-07-12T01:46:14.307Z,2.77
2017-07-12T01:48:41.798Z,2.60
2017-07-12T01:51:10.039Z,2.30
2017-07-12T01:53:37.528Z,2.57
2017-07-12T01:56:05.782Z,2.40
2017-07-12T01:58:33.297Z,2.13
2017-07-12T02:01:00.804Z,2.70
2017-07-12T02:03:28.307Z,2.60
2017-07-12T02:05:55.786Z,2.70
2017-07-12T02:08:23.278Z,2.43
2017-07-12T02:10:50.769Z,2.13
2017-07-12T02:13:18.258Z,2.33
2017-07-12T02:15:45.757Z,2.70
2017-07-12T02:18:13.231Z,2.50
2017-07-12T02:20:41.516Z,2.30
2017-07-12T02:23:08.994Z,2.03
2017-07-12T02:25:36.463Z,2.43
2017-07-12T02:28:03.949Z,2.30
2017-07-12T02:30:31.434Z,2.00
2017-07-12T02:32:59.684Z,2.63
2017-07-12T02:35:27.157Z,2.60
2017-07-12T02:37:54.644Z,2.63
2017-07-12T02:40:22.122Z,2.60
2017-07-12T02:42:49.610Z,2.50
2017-07-12T02:45:17.093Z,2.47
2017-07-12T02:47:45.356Z,2.90
2017-07-12T02:50:12.934Z,2.70
2017-07-12T02:52:41.177Z,2.50
2017-07-12T02:55:08.664Z,2.80
2017-07-12T02:57:36.899Z,2.90
2017-07-12T03:00:04.390Z,2.87
2017-07-12T03:02:31.870Z,2.57
2017-07-12T03:05:00.119Z,2.50
2017-07-12T03:07:27.602Z,2.67
2017-07-12T03:09:55.855Z,2.57
2017-07-12T03:12:23.336Z,3.03
2017-07-12T03:14:50.819Z,3.07
2017-07-12T03:17:18.318Z,3.07
2017-07-12T03:19:45.798Z,2.17
2017-07-12T03:22:14.044Z,2.80
2017-07-12T03:24:41.531Z,2.50
2017-07-12T03:27:09.815Z,2.53
2017-07-12T03:29:38.069Z,2.87
2017-07-12T03:32:05.560Z,2.60
2017-07-12T03:34:33.040Z,2.50
2017-07-12T03:37:00.524Z,3.50
2017-07-12T03:39:40.025Z,2.60
2017-07-12T03:42:07.497Z,2.63
2017-07-12T03:44:35.002Z,3.00
2017-07-12T03:47:02.478Z,2.90
2017-07-12T03:49:30.717Z,2.50
2017-07-12T03:51:58.208Z,3.43
2017-07-12T03:54:26.476Z,2.63
2017-07-12T03:56:53.948Z,3.03
2017-07-12T03:59:22.198Z,2.83
2017-07-12T04:01:49.692Z,2.90
2017-07-12T04:04:17.159Z,2.73
2017-07-12T04:06:44.663Z,2.87
2017-07-12T04:09:12.153Z,2.60
2017-07-12T04:11:40.432Z,2.70
2017-07-12T04:14:08.683Z,2.23
2017-07-12T04:16:36.161Z,3.17
2017-07-12T04:19:04.438Z,2.90
2017-07-12T04:21:32.695Z,2.90
2017-07-12T04:24:00.186Z,3.10
2017-07-12T04:26:27.682Z,2.70
2017-07-12T04:28:55.191Z,2.78
2017-07-12T04:31:23.452Z,2.93
2017-07-12T04:33:50.931Z,2.73
2017-07-12T04:36:18.480Z,3.00
2017-07-12T04:38:46.725Z,3.10
2017-07-12T04:41:14.235Z,2.90
2017-07-12T04:43:41.751Z,3.00
2017-07-12T04:46:09.255Z,2.90
2017-07-12T04:48:36.751Z,2.60
2017-07-12T04:51:04.267Z,2.57
2017-07-12T04:53:31.767Z,2.80
2017-07-12T04:55:59.259Z,2.90
2017-07-12T04:58:27.525Z,2.80
2017-07-12T05:00:55.003Z,3.40
2017-07-12T05:03:23.250Z,3.00
2017-07-12T05:05:50.737Z,2.60
2017-07-12T05:08:18.987Z,2.53
2017-07-12T05:10:47.245Z,2.93
2017-07-12T05:13:14.744Z,2.90
2017-07-12T05:15:42.229Z,3.20
2017-07-12T05:18:09.766Z,3.30
2017-07-12T05:20:37.269Z,3.20
2017-07-12T05:23:04.740Z,2.90
2017-07-12T05:25:32.238Z,3.20
2017-07-12T05:28:00.486Z,2.90
2017-07-12T05:30:27.973Z,2.50
2017-07-12T05:32:57.064Z,3.10
2017-07-12T05:35:25.327Z,3.07
2017-07-12T05:37:52.821Z,2.70
2017-07-12T05:40:20.311Z,2.90
2017-07-12T05:42:47.796Z,3.30
2017-07-12T05:45:15.289Z,3.00
2017-07-12T05:47:42.772Z,2.90
2017-07-12T05:50:10.260Z,2.60
2017-07-12T05:52:37.750Z,2.60
2017-07-12T05:55:05.246Z,2.33
2017-07-12T05:57:32.727Z,2.67
2017-07-12T06:00:00.221Z,2.43
2017-07-12T06:02:28.511Z,2.57
2017-07-12T06:04:55.992Z,2.00
2017-07-12T06:07:23.509Z,2.50
2017-07-12T06:09:51.767Z,2.73
2017-07-12T06:12:19.253Z,3.07
2017-07-12T06:14:47.538Z,2.60
2017-07-12T06:17:15.027Z,2.63
2017-07-12T06:19:42.527Z,2.60
2017-07-12T06:22:10.757Z,2.30
2017-07-12T06:24:38.255Z,2.57
2017-07-12T06:27:05.748Z,2.37
2017-07-12T06:29:33.214Z,3.80
2017-07-12T06:32:00.702Z,2.73
2017-07-12T06:34:28.171Z,2.93
2017-07-12T06:36:55.682Z,2.80
2017-07-12T06:39:23.156Z,2.83
2017-07-12T06:41:50.666Z,3.77
2017-07-12T06:44:18.924Z,2.93
2017-07-12T06:46:46.419Z,2.80
2017-07-12T06:49:13.916Z,2.47
2017-07-12T06:51:41.417Z,2.20
2017-07-12T06:54:10.610Z,2.70
2017-07-12T06:56:38.889Z,3.00
2017-07-12T06:59:07.148Z,2.83
2017-07-12T07:01:35.863Z,2.70
2017-07-12T07:04:04.130Z,2.67
2017-07-12T07:06:32.378Z,2.97
2017-07-12T07:08:59.874Z,2.43
2017-07-12T07:11:28.131Z,3.30
2017-07-12T07:13:55.647Z,3.37
2017-07-12T07:16:23.128Z,2.77
2017-07-12T07:18:50.640Z,2.80
2017-07-12T07:21:18.132Z,3.30
2017-07-12T07:23:45.605Z,3.20
2017-07-12T07:26:13.084Z,2.53
2017-07-12T07:28:41.343Z,3.23
2017-07-12T07:31:08.838Z,2.97
2017-07-12T07:33:37.092Z,2.80
2017-07-12T07:36:04.590Z,3.80
2017-07-12T07:38:32.073Z,2.97
2017-07-12T07:40:59.581Z,2.80
2017-07-12T07:43:27.864Z,2.90
2017-07-12T07:45:55.344Z,3.00
2017-07-12T07:48:22.848Z,2.70
2017-07-12T07:50:50.339Z,2.90
2017-07-12T07:53:17.827Z,2.67
2017-07-12T07:55:45.303Z,2.80
2017-07-12T07:58:12.795Z,2.77
2017-07-12T08:00:41.047Z,2.60
2017-07-12T08:03:08.545Z,2.70
2017-07-12T08:05:36.036Z,2.20
2017-07-12T08:08:03.554Z,2.63
2017-07-12T08:10:31.803Z,2.20
2017-07-12T08:12:59.293Z,3.10
2017-07-12T08:15:27.546Z,2.33
2017-07-12T08:17:55.033Z,2.13
2017-07-12T08:20:22.535Z,2.40
2017-07-12T08:22:50.019Z,1.97
2017-07-12T08:25:17.527Z,2.17
2017-07-12T08:27:45.012Z,2.20
2017-07-12T08:30:12.499Z,2.40
2017-07-12T08:32:40.739Z,1.90
2017-07-12T08:35:08.283Z,1.93
2017-07-12T08:37:35.767Z,2.10
2017-07-12T08:40:03.259Z,2.00
2017-07-12T08:42:31.521Z,2.13
2017-07-12T08:44:59.000Z,1.90
2017-07-12T08:47:27.253Z,1.80
2017-07-12T08:49:54.755Z,1.57
2017-07-12T08:52:23.165Z,2.10
2017-07-12T08:54:50.665Z,1.90
2017-07-12T08:57:18.923Z,1.87
2017-07-12T08:59:46.395Z,1.70
2017-07-12T09:02:15.611Z,1.90
2017-07-12T09:04:43.614Z,2.27
2017-07-12T09:07:11.100Z,1.93
2017-07-12T09:09:38.592Z,2.20
2017-07-12T09:12:06.079Z,1.80
2017-07-12T09:14:33.645Z,1.80
2017-07-12T09:17:01.133Z,2.20
2017-07-12T09:19:28.636Z,1.80
2017-07-12T09:21:56.124Z,1.70
2017-07-12T09:34:32.446Z,2.10
2017-07-12T09:36:59.951Z,2.10
2017-07-12T09:39:27.444Z,2.10
2017-07-12T09:41:54.977Z,2.10
2017-07-12T09:44:22.481Z,2.00
2017-07-12T09:46:49.976Z,2.03
2017-07-12T09:49:18.033Z,2.00
2017-07-12T09:51:45.518Z,2.20
2017-07-12T09:54:13.755Z,2.13
2017-07-12T09:56:41.274Z,2.07
2017-07-12T09:59:08.756Z,2.20
2017-07-12T10:01:36.247Z,2.53
2017-07-12T10:04:03.722Z,2.23
2017-07-12T10:06:31.973Z,2.20
2017-07-12T10:09:05.220Z,2.20
2017-07-12T10:11:32.681Z,1.90
2017-07-12T10:14:00.168Z,2.27
2017-07-12T10:16:27.649Z,2.27
2017-07-12T10:18:55.163Z,2.20
2017-07-12T10:21:22.640Z,2.40
2017-07-12T10:23:50.147Z,2.30
2017-07-12T10:26:18.427Z,1.93
2017-07-12T10:28:46.693Z,2.33
2017-07-12T10:31:14.941Z,2.30
2017-07-12T10:33:42.425Z,1.90
2017-07-12T10:36:10.703Z,2.10
2017-07-12T10:38:38.970Z,2.17
2017-07-12T10:41:06.458Z,2.00
2017-07-12T10:43:33.960Z,1.80
2017-07-12T10:46:01.548Z,2.00
2017-07-12T10:48:29.049Z,2.20
2017-07-12T10:50:56.534Z,2.40
2017-07-12T10:53:24.013Z,2.03
2017-07-12T10:55:51.509Z,1.80
2017-07-12T10:58:18.985Z,1.80
2017-07-12T11:00:46.475Z,2.50
2017-07-12T11:03:13.950Z,1.90
2017-07-12T11:05:41.455Z,2.00
2017-07-12T11:08:08.942Z,1.97
2017-07-12T11:10:36.432Z,2.07
2017-07-12T11:13:04.685Z,2.13
2017-07-12T11:15:32.194Z,2.00
2017-07-12T11:17:59.681Z,2.00
2017-07-12T11:20:27.155Z,1.80
2017-07-12T11:22:54.647Z,2.57
2017-07-12T11:25:22.892Z,1.83
2017-07-12T11:27:50.377Z,2.20
2017-07-12T11:30:18.634Z,2.00
2017-07-12T11:32:46.138Z,3.10
2017-07-12T11:35:13.646Z,2.33
2017-07-12T11:37:41.169Z,2.70
2017-07-12T11:40:08.642Z,2.27
2017-07-12T11:42:36.142Z,2.23
2017-07-12T11:45:04.383Z,1.83
2017-07-12T11:47:31.904Z,2.00
2017-07-12T11:49:59.381Z,2.20
2017-07-12T11:52:26.867Z,2.67
2017-07-12T11:54:54.354Z,2.20
2017-07-12T11:57:22.601Z,2.60
2017-07-12T11:59:50.094Z,2.20
2017-07-12T12:02:18.333Z,2.20
2017-07-12T12:04:45.830Z,2.30
2017-07-12T12:07:14.079Z,2.40
2017-07-12T12:09:41.666Z,2.37
2017-07-12T12:12:09.921Z,2.10
2017-07-12T12:14:37.425Z,1.70
2017-07-12T12:17:04.916Z,2.40
2017-07-12T12:19:32.396Z,2.60
2017-07-12T12:21:59.888Z,1.80
2017-07-12T12:24:27.673Z,1.97
2017-07-12T12:26:55.156Z,2.30
2017-07-12T12:29:22.629Z,2.13
2017-07-12T12:31:50.210Z,2.20
2017-07-12T12:34:18.468Z,1.80
2017-07-12T12:36:45.955Z,1.83
2017-07-12T12:39:13.431Z,2.20
2017-07-12T12:41:40.926Z,2.40
2017-07-12T12:44:08.473Z,2.20
2017-07-12T12:46:35.949Z,2.20
2017-07-12T12:49:03.445Z,2.33
2017-07-12T12:51:30.914Z,2.63
2017-07-12T12:54:02.620Z,2.17
2017-07-12T12:56:30.107Z,2.20
2017-07-12T12:58:58.365Z,1.70
2017-07-12T13:01:25.847Z,2.30
2017-07-12T13:03:53.341Z,1.87
2017-07-12T13:06:20.825Z,1.70
2017-07-12T13:08:48.299Z,2.30
2017-07-12T13:11:16.579Z,1.77
2017-07-12T13:13:44.091Z,1.40
2017-07-12T13:16:11.579Z,1.63
2017-07-12T13:18:39.067Z,1.90
2017-07-12T13:21:07.308Z,1.80
2017-07-12T13:23:34.800Z,1.90
2017-07-12T13:26:03.072Z,1.63
2017-07-12T13:28:31.339Z,1.57
2017-07-12T13:30:59.625Z,2.00
2017-07-12T13:33:27.885Z,2.10
2017-07-12T13:35:55.356Z,1.90
2017-07-12T13:38:23.629Z,1.60
2017-07-12T13:40:51.869Z,1.70
2017-07-12T13:43:19.363Z,1.60
2017-07-12T13:45:47.618Z,1.30
2017-07-12T13:48:15.137Z,1.63
2017-07-12T13:50:42.608Z,1.20
2017-07-12T13:53:10.121Z,1.70
2017-07-12T13:55:38.380Z,1.40
2017-07-12T13:58:05.859Z,1.30
2017-07-12T14:00:33.358Z,1.40
2017-07-12T14:03:00.879Z,1.10
2017-07-12T14:05:28.375Z,1.50
2017-07-12T14:07:55.854Z,1.30
2017-07-12T14:10:23.357Z,1.27
2017-07-12T14:12:50.850Z,1.33
2017-07-12T14:15:18.355Z,1.13
2017-07-12T14:17:46.622Z,1.20
2017-07-12T14:20:14.120Z,1.10
2017-07-12T14:22:41.656Z,1.00
2017-07-12T14:25:09.917Z,1.10
2017-07-12T14:27:38.161Z,1.20
2017-07-12T14:30:05.671Z,0.90
2017-07-12T14:32:33.906Z,1.10
2017-07-12T14:35:01.384Z,0.90
2017-07-12T14:37:29.367Z,1.10
2017-07-12T14:39:57.615Z,1.20
2017-07-12T14:42:25.117Z,1.20
2017-07-12T14:44:52.611Z,0.93
2017-07-12T14:47:20.099Z,0.93
2017-07-12T14:49:47.589Z,1.20
2017-07-12T14:52:15.104Z,1.20
2017-07-12T14:54:42.594Z,1.10
2017-07-12T14:57:10.874Z,1.47
2017-07-12T14:59:39.120Z,1.60
2017-07-12T15:02:06.591Z,1.17
2017-07-12T15:04:34.845Z,1.00
2017-07-12T15:07:02.337Z,1.00
2017-07-12T15:09:30.607Z,1.13
2017-07-12T15:11:58.885Z,1.30
2017-07-12T15:14:27.139Z,1.27
2017-07-12T15:16:54.644Z,1.30
2017-07-12T15:19:22.154Z,1.10
2017-07-12T15:21:49.621Z,1.27
2017-07-12T15:24:17.142Z,1.20
2017-07-12T15:26:44.630Z,0.97
2017-07-12T15:29:12.111Z,1.47
2017-07-12T15:31:40.397Z,1.60
2017-07-12T15:34:07.880Z,1.10
2017-07-12T15:36:35.379Z,1.10
2017-07-12T15:39:02.874Z,1.40
2017-07-12T15:41:30.370Z,1.30
2017-07-12T15:43:57.896Z,1.20
2017-07-12T15:46:25.756Z,1.30
2017-07-12T15:48:53.270Z,1.40
2017-07-12T15:51:20.762Z,1.43
2017-07-12T15:53:49.058Z,1.23
2017-07-12T15:56:16.549Z,1.20
2017-07-12T15:58:44.039Z,1.10
2017-07-12T16:01:11.540Z,1.23
2017-07-12T16:03:39.016Z,1.17
2017-07-12T16:06:06.513Z,1.30
2017-07-12T16:08:34.019Z,1.40
2017-07-12T16:11:01.530Z,1.10
2017-07-12T16:13:29.007Z,1.30
2017-07-12T16:15:56.523Z,1.60
2017-07-12T16:18:24.000Z,1.17
2017-07-12T16:20:51.531Z,1.40
2017-07-12T16:23:19.005Z,1.20
2017-07-12T16:25:46.484Z,1.70
2017-07-12T16:28:14.760Z,1.50
2017-07-12T16:30:43.040Z,1.30
2017-07-12T16:33:11.338Z,1.23
2017-07-12T16:35:38.874Z,1.20
2017-07-12T16:38:07.162Z,1.20
2017-07-12T16:40:35.429Z,1.20
2017-07-12T16:43:03.716Z,1.60
2017-07-12T16:45:31.214Z,1.23
2017-07-12T16:47:58.700Z,1.10
2017-07-12T16:50:26.207Z,1.30
2017-07-12T16:52:53.704Z,1.10
2017-07-12T16:55:21.220Z,1.10
2017-07-12T16:57:48.706Z,1.10
2017-07-12T17:00:16.220Z,1.57
2017-07-12T17:02:44.478Z,0.90
2017-07-12T17:05:11.978Z,1.07
2017-07-12T17:07:39.490Z,0.70
2017-07-12T17:10:06.958Z,1.00
2017-07-12T17:12:35.198Z,0.80
2017-07-12T17:15:02.689Z,0.90
2017-07-12T17:17:30.165Z,0.90
2017-07-12T17:19:58.454Z,0.80
2017-07-12T17:22:25.946Z,0.80
2017-07-12T17:24:53.431Z,1.20
2017-07-12T17:27:20.942Z,0.90
2017-07-12T17:29:48.407Z,1.00
2017-07-12T17:32:15.903Z,1.00
2017-07-12T17:34:43.398Z,1.00
2017-07-12T17:37:10.900Z,1.27
2017-07-12T17:39:38.392Z,1.17
2017-07-12T17:42:05.873Z,1.10
2017-07-12T17:44:33.360Z,1.17
2017-07-12T17:47:00.839Z,1.10
2017-07-12T17:49:28.334Z,1.17
2017-07-12T17:51:56.584Z,1.20
2017-07-12T17:54:24.085Z,1.20
2017-07-12T17:56:51.577Z,1.10
2017-07-12T17:59:19.078Z,1.10
2017-07-12T18:01:47.328Z,1.10
2017-07-12T18:04:14.862Z,1.17
2017-07-12T18:06:42.366Z,1.10
2017-07-12T18:09:10.646Z,1.20
2017-07-12T18:11:38.935Z,1.30
2017-07-12T18:14:07.189Z,1.40
2017-07-12T18:16:34.907Z,1.00
2017-07-12T18:19:02.389Z,1.30
2017-07-12T18:21:29.884Z,1.10
2017-07-12T18:23:57.371Z,1.40
2017-07-12T18:26:24.871Z,1.30
2017-07-12T18:28:52.349Z,1.40
2017-07-12T18:31:20.626Z,1.27
2017-07-12T18:33:48.865Z,1.70
2017-07-12T18:36:16.362Z,1.40
2017-07-12T18:38:44.637Z,1.40
2017-07-12T18:41:12.894Z,1.27
2017-07-12T18:43:40.479Z,1.33
2017-07-12T18:46:07.895Z,1.40
2017-07-12T18:48:35.396Z,1.30
2017-07-12T18:51:03.678Z,1.40
2017-07-12T18:53:31.168Z,1.50
2017-07-12T18:55:58.658Z,1.47
2017-07-12T18:58:26.139Z,1.30
2017-07-12T19:00:54.418Z,1.33
2017-07-12T19:03:22.674Z,1.80
2017-07-12T19:05:50.183Z,1.43
2017-07-12T19:08:17.678Z,1.93
2017-07-12T19:10:45.183Z,1.40
2017-07-12T19:13:12.665Z,1.30
2017-07-12T19:15:40.164Z,1.30
2017-07-12T19:18:07.635Z,1.47
2017-07-12T19:20:35.881Z,1.60
2017-07-12T19:23:03.377Z,1.50
2017-07-12T19:25:31.626Z,1.30
2017-07-12T19:27:59.118Z,1.40
2017-07-12T19:30:27.428Z,1.57
2017-07-12T19:32:54.928Z,2.10
2017-07-12T19:35:22.812Z,1.50
2017-07-12T19:37:51.072Z,1.80
2017-07-12T19:40:18.645Z,1.50
2017-07-12T19:42:46.923Z,1.80
2017-07-12T19:45:15.170Z,1.50
2017-07-12T19:47:42.642Z,1.60
2017-07-12T19:50:10.939Z,1.50
2017-07-12T19:52:38.430Z,1.90
2017-07-12T19:55:05.912Z,1.77
2017-07-12T19:57:33.416Z,1.70
2017-07-12T20:00:00.891Z,1.60
2017-07-12T20:02:34.893Z,1.93
2017-07-12T20:05:02.366Z,2.20
2017-07-12T20:07:29.842Z,1.90
2017-07-12T20:09:58.353Z,1.63
2017-07-12T20:12:25.833Z,1.80
2017-07-12T20:14:54.094Z,1.40
2017-07-12T20:17:22.347Z,1.40
2017-07-12T20:19:49.840Z,1.53
2017-07-12T20:22:18.086Z,1.40
2017-07-12T20:24:45.578Z,1.30
2017-07-12T20:27:13.823Z,1.57
2017-07-12T20:29:41.305Z,2.00
2017-07-12T20:32:09.555Z,1.40
2017-07-12T20:34:37.068Z,1.60
2017-07-12T20:37:04.560Z,1.30
2017-07-12T20:39:32.075Z,1.30
2017-07-12T20:41:59.573Z,1.43
2017-07-12T20:44:27.062Z,1.53
2017-07-12T20:46:54.627Z,1.40
2017-07-12T20:49:22.886Z,1.50
2017-07-12T20:51:50.384Z,1.60
2017-07-12T20:54:17.854Z,1.40
2017-07-12T20:56:45.366Z,1.60
2017-07-12T20:59:12.942Z,1.83
2017-07-12T21:01:41.201Z,2.00
2017-07-12T21:04:08.675Z,1.70
2017-07-12T21:06:37.861Z,1.70
2017-07-12T21:09:05.339Z,1.50
2017-07-12T21:11:33.593Z,1.80
2017-07-12T21:14:01.066Z,1.60
2017-07-12T21:16:29.335Z,1.80
2017-07-12T21:18:57.583Z,1.80
2017-07-12T21:21:25.067Z,2.07
2017-07-12T21:23:53.329Z,1.70
2017-07-12T21:26:20.802Z,2.00
2017-07-12T21:28:49.077Z,1.93
2017-07-12T21:31:17.326Z,2.00
2017-07-12T21:33:45.733Z,1.87
2017-07-12T21:36:13.977Z,1.80
2017-07-12T21:38:41.471Z,2.33
2017-07-12T21:41:09.719Z,2.40
2017-07-12T21:43:37.207Z,2.10
2017-07-12T21:46:05.484Z,2.00
2017-07-12T21:48:32.926Z,2.40
2017-07-12T21:51:00.416Z,2.00
2017-07-12T21:53:45.604Z,1.87
2017-07-12T21:56:30.815Z,1.80
2017-07-12T21:59:16.192Z,2.30
2017-07-12T22:02:01.338Z,2.33
2017-07-12T22:04:46.532Z,2.23
2017-07-12T22:07:31.638Z,1.83
2017-07-12T22:10:17.428Z,1.63
2017-07-12T22:13:03.220Z,1.70
2017-07-12T22:15:48.475Z,2.17
2017-07-12T22:18:34.582Z,1.97
2017-07-12T22:21:20.773Z,2.17
2017-07-12T22:24:06.666Z,2.30
2017-07-12T22:26:52.868Z,2.20
2017-07-12T22:29:39.023Z,2.20
2017-07-12T22:32:24.167Z,2.27
2017-07-12T22:35:09.257Z,2.23
2017-07-12T22:37:42.562Z,2.40
2017-07-12T22:40:15.659Z,2.67
2017-07-12T22:42:48.930Z,2.40
2017-07-12T22:45:16.422Z,2.77
2017-07-12T22:47:43.903Z,2.20
2017-07-12T22:50:11.403Z,2.57
2017-07-12T22:52:38.887Z,2.03
2017-07-12T22:55:06.368Z,2.60
2017-07-12T22:57:34.630Z,2.67
2017-07-12T23:00:02.893Z,2.20
2017-07-12T23:02:30.374Z,2.40
2017-07-12T23:04:58.651Z,2.70
2017-07-12T23:07:26.933Z,3.23
2017-07-12T23:09:54.414Z,2.47
2017-07-12T23:12:21.910Z,2.87
2017-07-12T23:14:49.391Z,2.83
2017-07-12T23:17:16.870Z,2.83
2017-07-12T23:19:45.115Z,3.00
2017-07-12T23:22:12.615Z,2.60
2017-07-12T23:24:40.115Z,2.40
2017-07-12T23:27:07.623Z,2.67
2017-07-12T23:29:35.123Z,2.63
2017-07-12T23:32:02.674Z,2.50
2017-07-12T23:34:30.100Z,2.80
2017-07-12T23:36:57.605Z,2.63
2017-07-12T23:39:25.082Z,2.90
2017-07-12T23:41:52.557Z,2.73
2017-07-12T23:44:20.822Z,2.67
2017-07-12T23:46:48.394Z,3.77
2017-07-12T23:49:16.643Z,3.30
2017-07-12T23:51:44.117Z,4.00
2017-07-12T23:54:11.602Z,3.83
2017-07-12T23:56:39.073Z,4.20
2017-07-12T23:59:06.566Z,4.93
